Seaside Park, New Jersey
Current Conditions -  °F | °C
As of 3:35 PM on Monday 24 Nov 2014 (Local Time) from KMJX Reporting Station
Clear Clear  
Wind Chill: 19°   Ceiling: Unl
Heat Index: 19°   Visibility: 10mi
Dew Point: 14°   Wind: 12mph
Humidity: 73%   Direction: 200°SSW
Pressure: 29.63"   Gusts: 20mph
Location:  39.93°N, 74.07°W
Report Text: KMJX 242035Z AUTO 20010G17KT 10SM CLR 19/14 A2963 RMK AO1
Loading
Personal Weather Stations






























Interactive Weather Map New forecast layout! Learn more

10-Day Weather Forecast

Advertisements
Track Severe Weather on mobile